Decoded Metar for LFRV (VANNES in FRANCE) (IATA:VNE) | Meteo·Mobile Aviation Weather
aviador You're here:

LFRV Decoded Metar

VANNES in FRANCE
Report Time2019-07-16 10:00:00
UTC Time2019-07-16 10:22:57
Flight Rules vfr VFR
WindVRB at 03 kt
Visibility9999 m
Phenomena:N/A
Clouds:Few 021 Hf
Expected CloudBase > 4,800 ft AGL from Temp-Dew spread
CeilingNone
Temp24°C (ISA +10)
Dew Point12°C (47% RH)
AAT23.5°C
QNH1019 hPa
Density Alt1,581 ft
Elevation445 ft
Report Wrong Elevation
Raw Report
METAR LFRV 161000Z AUTO VRB03KT 9999 FEW021 24/12 Q1019=

Extra information for LFRV:More info

Metar Taf Metar & Taf Last 4 Metars F.Rules Stats Wind Profile Meteogram Temp Stats Airport Information Weather charts Add Link Nearby VenuesMetar ALERT Operation Metar Decoded Social comments